Allen, KS

5:42 PM CDT on August 30, 2016 (GMT -0500)
Admire Annex | | Change Station

Elev 1201 ft 38.68 °N, 96.05 °W | Updated 8 minutes ago

Light Rain
Light Rain
84.2 °F
Feels Like 92 °F
N
2.7
Wind Variable Wind from East

Today
High -- | Low -- °F
--% Chance of Precip.
Yesterday
High -- | Low -- °F
Precip. -- in
Pressure 30.07 in
Visibility 9.0 miles
Clouds Scattered Clouds 3100 ft
Mostly Cloudy 9000 ft
Overcast 11000 ft
Heat Index 92 °F
Dew Point 75 °F
Humidity 73%
Rainfall 0.17 in
Snow Depth Not available.
6:52 AM 7:57 PM
Waning Crescent, 2% visible
SPECI KEMP 302234Z AUTO 04006KT 9SM -RA SCT031 BKN090 OVC110 26/23 A3007 RMK AO2 LTG DSNT SW AND W TSE28 P0006 T02610233
Pressure 30.07 in
Visibility 9.0 miles
Clouds Scattered Clouds 3100 ft
Mostly Cloudy 9000 ft
Overcast 11000 ft
Heat Index 92 °F
Dew Point 75 °F
Humidity 73%
Rainfall 0.17 in
Snow Depth Not available.
6:52 AM 7:57 PM
Waning Crescent, 2% visible
SPECI KEMP 302234Z AUTO 04006KT 9SM -RA SCT031 BKN090 OVC110 26/23 A3007 RMK AO2 LTG DSNT SW AND W TSE28 P0006 T02610233

10-Day Weather Forecast

Almanac

Astronomy

Aug. 30, 2016 Rise Set
Actual Time
Civil Twilight
Nautical Twilight
Astronomical Twilight
Moon
Length of Visible Light
Length of Day
Tomorrow will be .
, % of the Moon is Illuminated

Today's Extremes

State Highs State Lows

Community

WunderPhotos

Upload Photos

1,935,917 photos uploaded!

WunderBlog® & News

Nearby

Air Quality

  Air Quality AQ Index Pollutant
Not available.

Snow Depth

Station Depth Elevation

Earthquake Activity

City Distance Mag. Time & Date
Minimum magnitude displayed is 2.5.

Coastal Water Temperatures

Place Temperature

Stations

Nearby Weather Stations

Station Location Temp. Windchill Dew Point Humidity Wind Precip. Elev Updated Type
                   

Watches & Warnings

There are currently no watches in effect.